Time;durP1;ratioP1;P1;durP2;ratioP2;P2;SDS_P1;SDS_P2;PMS_P1;PMS_P2;Temp;Humidity;BMP_temperature;BMP_pressure;BME280_temperature;BME280_humidity;BME280_pressure;Samples;Min_cycle;Max_cycle;Signal;HPM_P1;HPM_P2
2023/08/04 00:00:15;;;;;;;2.55;1.25;;;;;;;19.77;85.83;95287.09;5091248;28;20192;-81
2023/08/04 00:02:42;;;;;;;3.55;1.20;;;;;;;19.74;86.52;95301.44;5101593;28;20234;-80
2023/08/04 00:05:09;;;;;;;4.32;1.40;;;;;;;19.72;86.82;95300.09;5104077;28;20883;-80
2023/08/04 00:07:37;;;;;;;1.85;1.10;;;;;;;19.74;86.19;95282.34;5091661;28;20196;-80
2023/08/04 00:10:04;;;;;;;2.47;1.30;;;;;;;19.72;87.11;95292.25;5091260;28;20272;-79
2023/08/04 00:12:31;;;;;;;2.38;1.10;;;;;;;19.76;86.14;95275.06;5106968;28;20767;-81
2023/08/04 00:14:58;;;;;;;3.10;1.40;;;;;;;19.78;86.08;95270.41;5111075;28;20721;-80
2023/08/04 00:17:25;;;;;;;1.40;1.13;;;;;;;19.77;85.40;95253.13;5096400;28;20200;-79
2023/08/04 00:19:52;;;;;;;2.95;1.20;;;;;;;19.71;86.40;95256.72;5110032;28;20213;-79
2023/08/04 00:22:18;;;;;;;2.15;1.20;;;;;;;19.81;85.36;95243.78;5112080;28;20216;-80
2023/08/04 00:24:45;;;;;;;1.02;0.93;;;;;;;19.87;84.91;95242.81;5111006;28;20196;-80
2023/08/04 00:27:12;;;;;;;2.42;1.00;;;;;;;19.83;84.62;95252.94;5097060;28;20220;-80
2023/08/04 00:29:40;;;;;;;1.75;1.10;;;;;;;19.85;84.62;95248.28;5090463;28;20227;-81
2023/08/04 00:32:06;;;;;;;1.77;1.15;;;;;;;19.85;84.64;95255.31;5090375;28;20605;-79
2023/08/04 00:34:34;;;;;;;1.15;1.00;;;;;;;19.82;84.16;95235.69;5100635;28;20199;-80
2023/08/04 00:37:00;;;;;;;2.60;1.13;;;;;;;19.85;84.35;95244.88;5103137;28;20196;-81
2023/08/04 00:39:27;;;;;;;1.65;1.35;;;;;;;19.78;84.46;95245.06;5094441;28;20584;-79
2023/08/04 00:41:53;;;;;;;2.72;1.20;;;;;;;19.79;84.02;95240.63;5105163;28;20243;-79
2023/08/04 00:44:20;;;;;;;2.78;1.20;;;;;;;19.76;84.42;95256.78;5116648;28;20196;-81
2023/08/04 00:46:46;;;;;;;3.88;0.95;;;;;;;19.80;84.35;95260.50;5106468;28;20558;-80
2023/08/04 00:49:13;;;;;;;1.17;1.08;;;;;;;19.78;84.80;95267.78;5094441;28;20255;-81
2023/08/04 00:51:40;;;;;;;1.50;1.00;;;;;;;19.80;84.28;95263.13;5112142;28;20223;-81
2023/08/04 00:54:07;;;;;;;1.35;1.00;;;;;;;19.78;84.92;95270.41;5114950;28;20210;-80
2023/08/04 00:56:35;;;;;;;1.65;1.00;;;;;;;19.73;85.32;95265.88;5106833;28;20196;-79
2023/08/04 00:59:01;;;;;;;2.55;1.27;;;;;;;19.70;86.05;95268.19;5094502;28;20204;-80
2023/08/04 01:01:28;;;;;;;2.13;1.02;;;;;;;19.69;85.54;95256.16;5094396;28;20227;-80
2023/08/04 01:03:56;;;;;;;2.45;1.20;;;;;;;19.66;86.02;95267.88;5093805;28;20665;-80
2023/08/04 01:06:30;;;;;;;1.25;1.00;;;;;;;19.62;86.54;95277.25;5102814;28;20200;-79
2023/08/04 01:09:07;;;;;;;2.08;1.30;;;;;;;19.65;86.87;95274.91;5113781;28;20621;-80
2023/08/04 01:11:43;;;;;;;1.20;1.00;;;;;;;19.65;85.99;95248.78;5105618;28;20215;-79
2023/08/04 01:14:11;;;;;;;2.00;1.13;;;;;;;19.67;85.14;95232.88;5094304;28;20188;-80
2023/08/04 01:16:38;;;;;;;1.42;1.10;;;;;;;19.60;85.96;95255.78;5107088;28;20893;-80
2023/08/04 01:19:04;;;;;;;2.67;1.00;;;;;;;19.61;85.56;95260.00;5114456;28;20214;-80
2023/08/04 01:21:40;;;;;;;2.63;1.25;;;;;;;19.61;85.99;95281.69;5113103;28;20784;-79
2023/08/04 01:24:07;;;;;;;12.20;1.20;;;;;;;19.62;86.08;95291.09;5112069;28;20229;-80
2023/08/04 01:26:38;;;;;;;1.00;0.85;;;;;;;19.66;85.90;95284.34;5102027;28;20211;-80
2023/08/04 01:29:07;;;;;;;1.30;1.10;;;;;;;19.72;85.25;95266.13;5092980;28;20853;-80
2023/08/04 01:31:35;;;;;;;2.08;1.00;;;;;;;19.68;85.44;95255.38;5093448;28;20700;-80
2023/08/04 01:34:02;;;;;;;1.10;1.00;;;;;;;19.73;85.07;95260.66;5093770;28;20572;-80
2023/08/04 01:36:29;;;;;;;1.65;1.13;;;;;;;19.74;85.10;95245.78;5093080;28;20221;-81
2023/08/04 01:38:57;;;;;;;1.00;0.90;;;;;;;19.65;85.26;95240.16;5107792;28;20537;-81
2023/08/04 01:41:23;;;;;;;2.20;0.90;;;;;;;19.48;85.69;95234.16;5112741;28;20215;-80
2023/08/04 01:43:50;;;;;;;2.38;1.05;;;;;;;19.46;86.57;95247.47;5114046;28;20698;-80
2023/08/04 01:46:16;;;;;;;1.25;1.00;;;;;;;19.45;86.47;95245.09;5114305;28;20224;-81
2023/08/04 01:48:43;;;;;;;2.03;1.02;;;;;;;19.50;86.57;95248.59;5113423;28;20203;-80
2023/08/04 01:51:09;;;;;;;1.95;1.38;;;;;;;19.50;86.54;95245.19;5110959;28;20226;-80
2023/08/04 01:53:35;;;;;;;1.35;1.00;;;;;;;19.46;87.60;95247.47;5112822;28;20672;-80
2023/08/04 01:56:03;;;;;;;1.65;0.90;;;;;;;19.52;86.41;95223.03;5104986;28;20241;-81
2023/08/04 01:58:30;;;;;;;1.33;0.98;;;;;;;19.53;86.26;95219.41;5092249;28;20193;-81
2023/08/04 02:00:56;;;;;;;2.22;0.90;;;;;;;19.52;86.14;95215.19;5092537;28;20583;-80
2023/08/04 02:03:22;;;;;;;1.33;0.82;;;;;;;19.54;85.39;95207.91;5091639;28;20203;-80
2023/08/04 02:05:49;;;;;;;1.45;0.90;;;;;;;19.55;85.74;95212.09;5097655;28;20207;-79
2023/08/04 02:08:16;;;;;;;2.17;1.05;;;;;;;19.60;85.23;95201.75;5104728;28;20773;-80
2023/08/04 02:10:47;;;;;;;1.00;0.90;;;;;;;19.65;84.95;95207.00;5104487;28;20230;-80
2023/08/04 02:13:15;;;;;;;1.48;0.98;;;;;;;19.64;84.94;95199.41;5109321;28;20208;-79
2023/08/04 02:15:42;;;;;;;2.63;1.20;;;;;;;19.48;86.70;95215.88;5112093;28;20203;-80
2023/08/04 02:18:08;;;;;;;3.33;1.17;;;;;;;19.41;87.24;95226.53;5111493;28;20210;-80
2023/08/04 02:20:35;;;;;;;2.22;1.33;;;;;;;19.43;87.40;95236.72;5091931;28;20196;-79
2023/08/04 02:23:01;;;;;;;1.73;1.30;;;;;;;19.46;87.00;95238.84;5092043;28;20814;-79
2023/08/04 02:25:28;;;;;;;2.03;1.25;;;;;;;19.44;86.64;95233.84;5092116;28;20207;-80
2023/08/04 02:27:54;;;;;;;1.38;1.10;;;;;;;19.35;87.07;95245.75;5104343;28;20652;-80
2023/08/04 02:30:22;;;;;;;1.48;0.95;;;;;;;19.41;86.69;95238.78;5112577;28;20227;-81
2023/08/04 02:32:48;;;;;;;2.25;1.25;;;;;;;19.43;86.82;95234.13;5095423;28;20658;-79
2023/08/04 02:35:15;;;;;;;1.48;0.90;;;;;;;19.37;86.99;95235.84;5106714;28;20203;-80
2023/08/04 02:37:41;;;;;;;1.45;0.98;;;;;;;19.35;87.35;95239.72;5113824;27;20992;-80
2023/08/04 02:40:08;;;;;;;3.50;0.90;;;;;;;19.36;87.04;95231.66;5112496;28;20249;-79
2023/08/04 02:42:35;;;;;;;1.80;1.08;;;;;;;19.31;86.99;95223.75;5100560;28;20216;-80
2023/08/04 02:45:01;;;;;;;1.83;1.00;;;;;;;19.30;86.79;95215.13;5110256;28;20203;-81
2023/08/04 02:47:29;;;;;;;1.38;1.17;;;;;;;19.31;87.37;95218.53;5091935;28;20200;-80
2023/08/04 02:49:55;;;;;;;2.10;1.27;;;;;;;19.37;87.35;95233.25;5091136;28;20771;-81
2023/08/04 02:52:22;;;;;;;1.52;1.15;;;;;;;19.40;87.62;95237.19;5091218;28;20219;-79
2023/08/04 02:54:48;;;;;;;1.60;1.40;;;;;;;19.38;87.72;95247.09;5091856;28;20203;-79
2023/08/04 02:57:15;;;;;;;2.85;1.20;;;;;;;19.28;87.29;95245.91;5110501;28;20210;-79
2023/08/04 02:59:41;;;;;;;3.15;1.08;;;;;;;19.17;88.35;95270.28;5109906;28;20199;-80
2023/08/04 03:02:07;;;;;;;1.08;0.98;;;;;;;19.22;87.89;95265.16;5111035;28;20251;-80
2023/08/04 03:04:35;;;;;;;1.67;1.13;;;;;;;19.26;87.64;95255.00;5110517;28;20199;-79
2023/08/04 03:07:01;;;;;;;1.75;1.20;;;;;;;19.29;87.38;95260.53;5093207;28;20202;-81
2023/08/04 03:09:28;;;;;;;1.70;1.00;;;;;;;19.29;87.84;95263.16;5091846;28;20219;-79
2023/08/04 03:11:55;;;;;;;2.30;1.55;;;;;;;19.26;88.15;95273.25;5101560;28;20711;-79
2023/08/04 03:14:21;;;;;;;2.08;1.10;;;;;;;19.27;88.44;95269.63;5093197;28;20199;-80
2023/08/04 03:16:49;;;;;;;2.97;1.20;;;;;;;19.24;88.22;95273.50;5108542;28;20203;-80
2023/08/04 03:19:16;;;;;;;3.38;1.30;;;;;;;19.25;88.29;95287.34;5112576;28;20235;-79
2023/08/04 03:21:44;;;;;;;2.40;1.20;;;;;;;19.19;88.89;95293.53;5111576;28;20207;-80
2023/08/04 03:24:11;;;;;;;2.42;1.17;;;;;;;19.21;88.82;95288.88;5097078;28;20196;-80
2023/08/04 03:26:37;;;;;;;1.13;0.95;;;;;;;19.15;89.62;95297.63;5090893;28;20203;-80
2023/08/04 03:29:03;;;;;;;2.25;1.23;;;;;;;19.08;90.36;95308.22;5091554;28;20212;-80
2023/08/04 03:31:30;;;;;;;3.90;1.30;;;;;;;19.08;90.76;95318.66;5106960;28;20231;-80
2023/08/04 03:33:56;;;;;;;2.83;1.20;;;;;;;18.96;90.93;95329.16;5110993;28;20580;-80
2023/08/04 03:36:23;;;;;;;1.17;0.93;;;;;;;18.92;91.24;95328.06;5110992;28;20196;-80
2023/08/04 03:38:51;;;;;;;2.42;1.00;;;;;;;18.93;90.77;95328.84;5111553;28;20204;-80
2023/08/04 03:41:17;;;;;;;2.05;1.20;;;;;;;19.02;90.35;95332.66;5110720;28;20215;-80
2023/08/04 03:43:43;;;;;;;1.35;0.90;;;;;;;19.05;90.16;95341.84;5111263;28;20614;-80
2023/08/04 03:46:10;;;;;;;1.30;1.20;;;;;;;19.07;89.57;95337.16;5111823;28;20211;-80
2023/08/04 03:48:36;;;;;;;2.33;1.33;;;;;;;19.05;90.37;95344.47;5109894;28;20199;-79
2023/08/04 03:51:02;;;;;;;1.75;1.35;;;;;;;19.05;89.66;95345.22;5111208;28;20231;-80
2023/08/04 03:53:29;;;;;;;1.52;1.20;;;;;;;18.92;90.30;95348.94;5111295;28;20199;-79
2023/08/04 03:55:57;;;;;;;3.53;1.10;;;;;;;18.95;89.73;95337.22;5091022;28;20195;-80
2023/08/04 03:58:23;;;;;;;1.63;1.00;;;;;;;18.92;89.79;95337.69;5090309;28;20204;-80
2023/08/04 04:00:50;;;;;;;1.65;1.13;;;;;;;18.96;89.03;95320.56;5090684;28;20569;-80
2023/08/04 04:03:16;;;;;;;3.53;1.25;;;;;;;18.82;88.98;95304.41;5098584;28;20231;-80
2023/08/04 04:05:42;;;;;;;1.90;1.10;;;;;;;18.71;88.13;95260.09;5106300;28;20195;-80
2023/08/04 04:08:09;;;;;;;2.05;1.20;;;;;;;18.41;88.78;95255.91;5110723;28;20204;-80
2023/08/04 04:10:35;;;;;;;1.48;1.10;;;;;;;18.34;89.15;95296.97;5097635;28;20579;-79
2023/08/04 04:13:03;;;;;;;1.98;1.00;;;;;;;18.48;88.69;95315.72;5101115;28;20227;-80
2023/08/04 04:15:29;;;;;;;3.22;1.00;;;;;;;18.54;90.19;95341.66;5093969;28;20211;-80
2023/08/04 04:17:56;;;;;;;2.63;1.10;;;;;;;18.62;90.18;95324.91;5093596;28;20196;-80
2023/08/04 04:20:22;;;;;;;2.70;0.93;;;;;;;18.56;91.67;95346.66;5101592;28;20360;-81
2023/08/04 04:22:49;;;;;;;1.98;1.13;;;;;;;18.56;90.95;95344.84;5114187;28;20228;-82
2023/08/04 04:25:15;;;;;;;2.03;1.20;;;;;;;18.57;90.89;95361.28;5114329;28;20278;-82
2023/08/04 04:27:41;;;;;;;1.35;0.90;;;;;;;18.52;88.48;95322.06;5114497;28;20537;-80
2023/08/04 04:30:10;;;;;;;1.10;1.00;;;;;;;18.62;88.20;95322.31;5113907;28;20192;-80
2023/08/04 04:32:36;;;;;;;1.92;1.05;;;;;;;18.77;88.76;95340.84;5111859;28;20719;-78
2023/08/04 04:35:03;;;;;;;1.20;0.80;;;;;;;18.91;86.87;95289.94;5115854;28;20199;-78
2023/08/04 04:37:29;;;;;;;2.00;1.00;;;;;;;19.07;85.11;95259.66;5111359;28;20703;-80
2023/08/04 04:39:56;;;;;;;2.00;1.02;;;;;;;18.97;83.38;95249.88;5115638;28;20192;-81
2023/08/04 04:42:24;;;;;;;1.88;0.98;;;;;;;18.84;83.85;95252.00;5094798;28;20215;-80
2023/08/04 04:44:50;;;;;;;1.25;0.80;;;;;;;18.82;83.81;95246.22;5119205;27;20696;-81
2023/08/04 04:47:18;;;;;;;1.58;1.00;;;;;;;18.81;83.68;95240.22;5126285;27;20700;-80
2023/08/04 04:49:45;;;;;;;1.27;0.93;;;;;;;18.78;83.14;95230.25;5124351;27;20197;-81
2023/08/04 04:52:15;;;;;;;1.13;0.90;;;;;;;18.68;83.81;95224.06;5118040;27;20226;-80
2023/08/04 04:54:41;;;;;;;1.42;0.80;;;;;;;18.70;82.99;95222.00;5114950;27;20196;-80
2023/08/04 04:57:10;;;;;;;1.08;0.88;;;;;;;18.70;81.96;95207.16;5117062;27;20201;-80
2023/08/04 04:59:36;;;;;;;1.25;0.90;;;;;;;18.78;84.06;95247.72;5110082;28;20563;-79
2023/08/04 05:02:03;;;;;;;1.27;1.00;;;;;;;18.90;80.36;95173.56;5110900;28;20207;-81
2023/08/04 05:04:30;;;;;;;1.00;0.90;;;;;;;18.83;78.57;95139.03;5112981;28;20200;-80
2023/08/04 05:06:57;;;;;;;1.05;0.95;;;;;;;18.78;78.99;95151.22;5113564;28;20563;-81
2023/08/04 05:09:25;;;;;;;1.40;0.90;;;;;;;18.76;80.07;95161.88;5112609;28;20660;-82
2023/08/04 05:11:52;;;;;;;0.93;0.90;;;;;;;18.75;79.88;95160.31;5112202;28;20227;-82
2023/08/04 05:14:18;;;;;;;1.15;0.90;;;;;;;18.75;78.81;95129.00;5111858;28;20199;-82
2023/08/04 05:16:45;;;;;;;1.20;0.80;;;;;;;18.75;79.14;95139.44;5112870;28;20211;-82
2023/08/04 05:19:12;;;;;;;0.93;0.80;;;;;;;18.68;78.28;95125.75;5113207;28;20198;-82
2023/08/04 05:21:39;;;;;;;1.45;0.90;;;;;;;18.69;79.20;95148.19;5112910;28;20211;-82
2023/08/04 05:24:06;;;;;;;1.70;0.85;;;;;;;18.65;79.76;95165.38;5108666;28;20621;-82
2023/08/04 05:26:35;;;;;;;1.10;0.90;;;;;;;18.65;80.42;95170.59;5111166;28;20199;-81
2023/08/04 05:29:01;;;;;;;2.10;0.93;;;;;;;18.57;80.61;95184.75;5111115;28;20684;-82
2023/08/04 05:31:27;;;;;;;1.35;1.25;;;;;;;18.60;80.52;95186.16;5109775;28;20227;-82
2023/08/04 05:33:56;;;;;;;6.82;2.45;;;;;;;18.56;82.21;95222.28;5101025;27;20591;-81
2023/08/04 05:36:22;;;;;;;4.25;1.70;;;;;;;18.52;81.42;95213.34;5094025;28;20196;-81
2023/08/04 05:38:50;;;;;;;1.88;1.20;;;;;;;18.54;81.14;95197.47;5093088;28;20261;-82
2023/08/04 05:41:16;;;;;;;3.47;3.00;;;;;;;18.52;81.31;95204.75;5105309;28;20225;-81
2023/08/04 05:43:42;;;;;;;2.92;1.92;;;;;;;18.51;81.54;95205.75;5113602;28;20290;-82
2023/08/04 05:46:12;;;;;;;1.20;1.10;;;;;;;18.41;81.99;95213.41;5097085;28;20196;-81
2023/08/04 05:48:42;;;;;;;1.85;1.20;;;;;;;18.43;81.74;95214.78;5099635;28;20256;-81
2023/08/04 05:51:08;;;;;;;2.25;1.25;;;;;;;18.43;81.83;95227.81;5103296;28;20238;-81
2023/08/04 05:53:37;;;;;;;2.08;1.02;;;;;;;18.46;81.42;95208.31;5093037;28;20192;-81
2023/08/04 05:56:05;;;;;;;1.83;1.10;;;;;;;18.54;81.53;95210.50;5109376;28;20195;-81
2023/08/04 05:58:32;;;;;;;1.13;1.02;;;;;;;18.47;82.74;95236.72;5108429;28;20200;-81
2023/08/04 06:00:58;;;;;;;1.55;1.20;;;;;;;18.50;83.54;95261.53;5099860;28;20189;-81
2023/08/04 06:03:25;;;;;;;2.05;1.02;;;;;;;18.58;83.38;95263.78;5092227;28;20196;-81
2023/08/04 06:05:51;;;;;;;1.60;1.00;;;;;;;18.59;82.88;95245.31;5108364;28;20571;-81
2023/08/04 06:08:17;;;;;;;1.40;1.10;;;;;;;18.61;82.82;95243.28;5113131;28;20206;-81
2023/08/04 06:10:44;;;;;;;1.30;0.88;;;;;;;18.60;82.64;95233.88;5112579;28;20199;-81
2023/08/04 06:13:12;;;;;;;1.63;1.15;;;;;;;18.63;83.12;95233.41;5111049;28;20202;-81
2023/08/04 06:15:38;;;;;;;5.50;5.00;;;;;;;18.68;83.01;95245.72;5108848;27;20208;-82
2023/08/04 06:18:04;;;;;;;6.05;5.10;;;;;;;18.71;82.82;95245.25;5093648;28;20269;-81
2023/08/04 06:20:31;;;;;;;4.25;3.20;;;;;;;18.79;82.90;95246.69;5102746;27;20243;-81
2023/08/04 06:22:57;;;;;;;0.98;0.95;;;;;;;18.76;82.44;95245.34;5102950;28;20872;-82
2023/08/04 06:25:24;;;;;;;1.10;0.88;;;;;;;18.82;82.27;95235.78;5112473;28;20206;-81
2023/08/04 06:27:50;;;;;;;1.35;0.90;;;;;;;18.84;82.24;95231.94;5113312;28;20207;-82
2023/08/04 06:30:19;;;;;;;1.63;0.80;;;;;;;18.82;82.13;95215.72;5106205;28;20385;-81
2023/08/04 06:32:46;;;;;;;0.98;0.77;;;;;;;18.81;81.32;95203.69;5103222;28;20258;-82
2023/08/04 06:35:13;;;;;;;1.67;0.93;;;;;;;18.78;82.34;95221.63;5117118;28;20199;-81
2023/08/04 06:37:39;;;;;;;1.13;1.05;;;;;;;18.82;81.83;95215.72;5116501;28;20203;-81
2023/08/04 06:40:07;;;;;;;1.88;1.17;;;;;;;18.89;82.26;95223.38;5116799;28;20232;-81
2023/08/04 06:42:33;;;;;;;1.25;1.02;;;;;;;18.92;81.67;95208.03;5106882;28;20207;-82
2023/08/04 06:45:01;;;;;;;1.17;0.90;;;;;;;18.93;82.02;95206.22;5115956;28;20195;-82
2023/08/04 06:47:29;;;;;;;2.33;1.00;;;;;;;18.92;81.92;95215.06;5115254;28;20219;-81
2023/08/04 06:49:55;;;;;;;2.05;1.20;;;;;;;19.00;81.99;95225.13;5114668;28;20218;-81
2023/08/04 06:52:21;;;;;;;1.95;1.30;;;;;;;18.97;81.41;95229.00;5102302;28;20228;-82
2023/08/04 06:54:48;;;;;;;2.00;1.45;;;;;;;18.88;78.29;95173.00;5104343;28;20192;-82
2023/08/04 06:57:15;;;;;;;1.30;0.90;;;;;;;18.92;79.10;95188.97;5115361;28;20199;-82
2023/08/04 06:59:41;;;;;;;1.63;1.52;;;;;;;18.85;79.30;95185.75;5112170;28;20204;-81
2023/08/04 07:02:08;;;;;;;0.85;0.80;;;;;;;18.85;79.06;95175.34;5104549;28;20739;-81
2023/08/04 07:04:36;;;;;;;1.13;0.98;;;;;;;18.90;78.80;95172.78;5108909;28;20191;-82
2023/08/04 07:07:02;;;;;;;4.22;1.10;;;;;;;18.94;78.86;95179.09;5100964;28;20188;-81
2023/08/04 07:09:28;;;;;;;4.90;3.30;;;;;;;18.96;78.88;95177.84;5093316;28;20203;-81
2023/08/04 07:11:55;;;;;;;3.60;3.30;;;;;;;18.98;79.00;95186.22;5105181;28;20634;-81
2023/08/04 07:14:21;;;;;;;1.40;1.13;;;;;;;18.98;78.39;95185.44;5110491;28;20669;-82
2023/08/04 07:16:48;;;;;;;1.27;1.05;;;;;;;18.89;78.94;95195.47;5107778;28;20214;-82
2023/08/04 07:19:14;;;;;;;1.73;1.05;;;;;;;18.85;77.93;95163.06;5095918;28;20203;-81
2023/08/04 07:21:43;;;;;;;2.15;1.20;;;;;;;18.89;79.42;95195.47;5113083;28;20408;-81
2023/08/04 07:24:11;;;;;;;1.63;1.15;;;;;;;18.88;79.01;95188.66;5112011;28;20205;-81
2023/08/04 07:26:37;;;;;;;2.53;1.20;;;;;;;18.98;78.62;95175.78;5103392;28;20192;-81
2023/08/04 07:29:04;;;;;;;1.70;1.10;;;;;;;19.01;78.67;95179.75;5094738;28;20199;-81
2023/08/04 07:31:34;;;;;;;1.00;0.90;;;;;;;18.88;78.12;95167.78;5095376;28;20227;-81
2023/08/04 07:34:01;;;;;;;1.17;0.93;;;;;;;18.95;79.02;95181.47;5104443;28;20310;-82
2023/08/04 07:36:27;;;;;;;1.13;0.90;;;;;;;19.02;79.06;95190.97;5107649;28;20203;-82
2023/08/04 07:38:55;;;;;;;1.02;0.90;;;;;;;19.00;79.17;95204.25;5095184;28;20203;-81
2023/08/04 07:41:24;;;;;;;2.70;1.17;;;;;;;19.04;79.93;95218.41;5092426;28;20220;-81
2023/08/04 07:43:50;;;;;;;1.73;1.05;;;;;;;19.08;79.24;95206.44;5093436;28;20662;-81
2023/08/04 07:46:20;;;;;;;1.77;0.90;;;;;;;19.12;77.86;95178.84;5093561;28;20195;-81
2023/08/04 07:48:46;;;;;;;1.17;0.90;;;;;;;19.19;77.68;95173.47;5095565;28;20200;-81
2023/08/04 07:51:12;;;;;;;1.55;1.00;;;;;;;19.19;77.73;95176.09;5092519;28;20269;-81
2023/08/04 07:53:39;;;;;;;1.95;1.15;;;;;;;19.22;77.15;95175.59;5090772;28;20207;-81
2023/08/04 07:56:07;;;;;;;1.40;1.10;;;;;;;19.17;77.16;95159.88;5090612;28;20968;-81
2023/08/04 07:58:33;;;;;;;3.92;1.13;;;;;;;19.15;76.41;95131.41;5099791;28;20192;-81
2023/08/04 08:00:59;;;;;;;1.45;1.30;;;;;;;19.20;76.91;95151.56;5092940;28;20188;-81
2023/08/04 08:03:26;;;;;;;3.25;1.17;;;;;;;19.22;76.41;95132.03;5095575;28;20196;-82
2023/08/04 08:05:52;;;;;;;1.05;0.90;;;;;;;19.19;78.08;95182.09;5111643;28;20195;-81
2023/08/04 08:08:19;;;;;;;1.92;1.67;;;;;;;19.23;77.88;95177.19;5096585;28;20203;-81
2023/08/04 08:10:45;;;;;;;4.43;4.03;;;;;;;19.22;78.21;95186.84;5101840;28;20191;-82
2023/08/04 08:13:13;;;;;;;1.90;1.20;;;;;;;19.20;78.49;95188.09;5096729;28;20607;-81
2023/08/04 08:15:40;;;;;;;1.08;0.98;;;;;;;19.22;78.49;95168.56;5095913;28;20385;-81
2023/08/04 08:18:09;;;;;;;1.88;1.05;;;;;;;19.28;78.73;95183.25;5093189;28;20199;-81
2023/08/04 08:20:35;;;;;;;3.53;0.82;;;;;;;19.31;77.25;95151.44;5099038;28;20597;-81
2023/08/04 08:23:02;;;;;;;1.45;1.10;;;;;;;19.43;76.72;95127.84;5107271;28;20226;-81
2023/08/04 08:25:31;;;;;;;1.40;1.05;;;;;;;19.48;76.69;95132.31;5095489;28;20564;-81
2023/08/04 08:27:58;;;;;;;1.95;0.90;;;;;;;19.51;77.80;95158.00;5115080;28;20196;-80
2023/08/04 08:30:26;;;;;;;2.20;1.10;;;;;;;19.59;76.38;95123.63;5102160;28;20722;-81
2023/08/04 08:32:52;;;;;;;1.90;0.80;;;;;;;19.69;74.70;95096.81;5098319;28;20763;-81
2023/08/04 08:35:19;;;;;;;2.17;1.23;;;;;;;19.78;74.07;95079.69;5094555;28;20192;-81
2023/08/04 08:37:45;;;;;;;1.38;0.90;;;;;;;19.77;73.02;95060.59;5105092;28;20619;-84
2023/08/04 08:40:12;;;;;;;0.77;0.77;;;;;;;19.82;71.99;95036.38;5108699;28;20415;-81
2023/08/04 08:42:39;;;;;;;2.50;0.90;;;;;;;19.82;72.19;95031.91;5093165;28;20215;-81
2023/08/04 08:45:06;;;;;;;1.20;0.88;;;;;;;19.90;71.57;95015.00;5095433;28;20211;-81
2023/08/04 08:47:36;;;;;;;1.10;0.73;;;;;;;19.92;71.49;95015.53;5095195;28;20712;-81
2023/08/04 08:50:04;;;;;;;1.42;0.80;;;;;;;19.92;72.38;95039.84;5091032;28;20434;-80
2023/08/04 08:52:34;;;;;;;1.30;1.00;;;;;;;19.95;72.96;95060.25;5092699;28;20235;-80
2023/08/04 08:55:00;;;;;;;0.80;0.80;;;;;;;20.02;70.49;94992.09;5098260;28;20199;-81
2023/08/04 08:57:28;;;;;;;0.90;0.90;;;;;;;20.03;70.69;94991.06;5112439;28;20203;-81
2023/08/04 08:59:57;;;;;;;1.23;1.05;;;;;;;20.07;70.51;94999.97;5095672;28;20215;-80
2023/08/04 09:02:24;;;;;;;1.63;0.98;;;;;;;20.06;69.57;94964.41;5097362;28;20231;-81
2023/08/04 09:04:52;;;;;;;1.35;1.00;;;;;;;20.12;69.95;94980.94;5101452;28;20797;-81
2023/08/04 09:07:18;;;;;;;2.40;1.00;;;;;;;20.15;70.00;94972.59;5106630;28;20237;-81
2023/08/04 09:09:45;;;;;;;1.13;0.80;;;;;;;20.14;68.90;94943.06;5112479;28;20203;-81
2023/08/04 09:12:13;;;;;;;4.15;3.75;;;;;;;20.26;69.48;94963.78;5111947;28;20230;-81
2023/08/04 09:14:50;;;;;;;9.52;7.38;;;;;;;20.33;70.14;94986.06;5096633;28;20196;-81
2023/08/04 09:17:30;;;;;;;2.30;2.10;;;;;;;20.38;70.44;94992.41;5093783;28;20823;-82
2023/08/04 09:19:59;;;;;;;1.45;1.05;;;;;;;20.45;70.36;94991.13;5105371;28;20203;-82
2023/08/04 09:22:25;;;;;;;1.13;0.90;;;;;;;20.49;68.79;94939.88;5098491;28;20215;-82
2023/08/04 09:24:56;;;;;;;1.50;0.70;;;;;;;20.52;68.16;94925.53;5097947;28;20480;-82
2023/08/04 09:27:31;;;;;;;2.47;0.98;;;;;;;20.55;68.40;94917.97;5096782;28;20200;-80
2023/08/04 09:29:59;;;;;;;0.98;0.90;;;;;;;20.61;68.47;94927.38;5104680;28;20191;-82
2023/08/04 09:32:26;;;;;;;1.45;0.93;;;;;;;20.66;68.75;94943.13;5115120;28;20257;-82
2023/08/04 09:35:02;;;;;;;1.35;0.80;;;;;;;20.61;67.98;94906.47;5113031;27;20825;-81
2023/08/04 09:37:31;;;;;;;2.35;1.13;;;;;;;20.66;68.26;94911.72;5093084;28;20275;-80
2023/08/04 09:39:57;;;;;;;1.98;1.10;;;;;;;20.73;68.06;94910.72;5099348;28;20187;-81
2023/08/04 09:42:24;;;;;;;0.90;0.80;;;;;;;20.79;67.89;94909.66;5105120;28;20215;-81
2023/08/04 09:44:51;;;;;;;2.38;0.90;;;;;;;20.80;68.68;94935.56;5105606;28;20199;-82
2023/08/04 09:47:18;;;;;;;2.10;1.60;;;;;;;20.85;68.52;94932.97;5095794;28;20358;-81
2023/08/04 09:49:44;;;;;;;11.25;10.25;;;;;;;20.84;67.32;94894.00;5094289;28;20200;-81
2023/08/04 09:52:12;;;;;;;2.08;1.80;;;;;;;20.86;67.61;94895.31;5108862;28;20226;-81
2023/08/04 09:54:38;;;;;;;1.85;1.50;;;;;;;20.88;68.63;94919.38;5102071;28;20219;-81
2023/08/04 09:57:06;;;;;;;1.00;0.90;;;;;;;20.91;69.04;94947.66;5097148;28;23122;-81
2023/08/04 09:59:33;;;;;;;1.52;0.90;;;;;;;20.95;68.27;94930.41;5103390;28;20206;-81
2023/08/04 10:01:59;;;;;;;1.45;1.00;;;;;;;20.96;67.67;94915.50;5094323;28;20697;-81
2023/08/04 10:04:27;;;;;;;3.25;1.08;;;;;;;20.92;67.82;94906.59;5103850;28;20222;-81
2023/08/04 10:06:55;;;;;;;1.52;1.02;;;;;;;20.94;67.71;94910.53;5108704;28;20192;-81
2023/08/04 10:09:24;;;;;;;1.05;0.95;;;;;;;20.84;66.93;94868.59;5110053;28;20203;-81
2023/08/04 10:11:51;;;;;;;2.65;0.77;;;;;;;20.89;67.00;94876.47;5099716;28;20220;-81
2023/08/04 10:14:17;;;;;;;1.20;1.08;;;;;;;20.88;66.64;94848.72;5112212;28;20264;-81
2023/08/04 10:16:44;;;;;;;1.98;1.00;;;;;;;20.82;67.09;94864.66;5103539;28;20219;-80
2023/08/04 10:19:12;;;;;;;2.22;1.13;;;;;;;20.80;68.68;94922.50;5100926;28;20210;-81
2023/08/04 10:21:41;;;;;;;1.33;1.10;;;;;;;20.84;69.14;94938.47;5109585;28;20212;-81
2023/08/04 10:24:09;;;;;;;2.08;0.73;;;;;;;20.93;65.35;94813.94;5094219;28;20188;-82
2023/08/04 10:26:46;;;;;;;0.95;0.70;;;;;;;20.95;62.04;94696.72;5093089;28;20200;-81
2023/08/04 10:29:13;;;;;;;0.77;0.70;;;;;;;21.01;62.19;94685.94;5095084;28;20229;-81
2023/08/04 10:31:52;;;;;;;0.70;0.70;;;;;;;21.19;61.06;94670.75;5100215;28;20220;-82
2023/08/04 10:34:21;;;;;;;3.10;1.90;;;;;;;21.33;60.50;94629.91;5092096;28;20204;-81
2023/08/04 10:37:05;;;;;;;2.80;2.25;;;;;;;21.32;59.33;94582.00;5091059;28;20784;-81
2023/08/04 10:39:33;;;;;;;1.38;0.93;;;;;;;21.31;59.22;94575.19;5091866;28;20222;-81
2023/08/04 10:42:05;;;;;;;0.85;0.80;;;;;;;21.46;58.83;94584.03;5090300;28;20226;-81
2023/08/04 10:44:48;;;;;;;0.75;0.75;;;;;;;21.59;58.97;94581.59;5098268;28;20203;-82
2023/08/04 10:47:15;;;;;;;2.55;0.90;;;;;;;21.63;58.69;94566.13;5100879;28;20204;-82
2023/08/04 10:49:42;;;;;;;0.90;0.70;;;;;;;21.60;58.59;94551.72;5107514;28;20191;-83
2023/08/04 10:52:10;;;;;;;0.80;0.80;;;;;;;21.62;57.20;94481.50;5108273;28;20222;-82
2023/08/04 10:54:36;;;;;;;1.65;0.80;;;;;;;21.67;57.55;94506.91;5106202;28;20191;-82
2023/08/04 10:57:04;;;;;;;8.13;7.32;;;;;;;21.73;58.04;94531.25;5101797;28;20200;-83
2023/08/04 10:59:31;;;;;;;5.00;4.47;;;;;;;21.77;58.47;94561.84;5099394;28;20199;-82
2023/08/04 11:01:57;;;;;;;1.27;1.17;;;;;;;21.71;58.65;94589.94;5108801;28;20246;-82
2023/08/04 11:04:24;;;;;;;4.40;1.00;;;;;;;21.75;58.35;94586.75;5111198;28;20203;-82
2023/08/04 11:06:50;;;;;;;3.78;0.82;;;;;;;21.71;57.63;94565.56;5112913;28;20191;-82
2023/08/04 11:09:17;;;;;;;0.75;0.75;;;;;;;21.70;57.87;94595.44;5103263;28;20199;-82
2023/08/04 11:11:43;;;;;;;0.82;0.80;;;;;;;21.70;58.36;94626.88;5098494;28;20712;-82
2023/08/04 11:14:11;;;;;;;1.05;0.80;;;;;;;21.73;57.63;94583.66;5095646;28;20235;-82
2023/08/04 11:16:38;;;;;;;0.75;0.70;;;;;;;21.71;57.69;94595.19;5093895;28;20602;-82
2023/08/04 11:19:07;;;;;;;1.05;0.70;;;;;;;21.75;57.23;94563.97;5101450;28;20214;-83
2023/08/04 11:21:33;;;;;;;1.20;0.90;;;;;;;21.85;57.91;94599.81;5097212;28;20223;-82
2023/08/04 11:24:00;;;;;;;0.80;0.80;;;;;;;21.86;55.72;94489.47;5092501;28;20188;-81
2023/08/04 11:26:28;;;;;;;0.85;0.70;;;;;;;21.95;56.47;94521.91;5093473;28;20204;-82
2023/08/04 11:28:56;;;;;;;0.80;0.80;;;;;;;22.22;57.12;94558.19;5093939;28;20196;-82
2023/08/04 11:31:24;;;;;;;1.50;0.80;;;;;;;22.36;56.55;94529.47;5100599;28;20222;-81
2023/08/04 11:33:52;;;;;;;1.88;0.88;;;;;;;22.55;57.08;94545.31;5103318;28;20407;-84